sensor_id;sensor_type;location;lat;lon;timestamp;temperature;humidity
31675;DHT22;18276;45.520;11.018;2023-05-24T00:00:00;20.90;68.20
31675;DHT22;18276;45.520;11.018;2023-05-24T00:02:30;20.90;68.20
31675;DHT22;18276;45.520;11.018;2023-05-24T00:04:58;20.80;68.20
31675;DHT22;18276;45.520;11.018;2023-05-24T00:07:27;20.80;68.30
31675;DHT22;18276;45.520;11.018;2023-05-24T00:09:54;20.80;68.30
31675;DHT22;18276;45.520;11.018;2023-05-24T00:12:21;20.80;68.50
31675;DHT22;18276;45.520;11.018;2023-05-24T00:14:48;20.80;68.60
31675;DHT22;18276;45.520;11.018;2023-05-24T00:17:15;20.70;68.60
31675;DHT22;18276;45.520;11.018;2023-05-24T00:19:42;20.70;68.70
31675;DHT22;18276;45.520;11.018;2023-05-24T00:22:09;20.60;68.70
31675;DHT22;18276;45.520;11.018;2023-05-24T00:24:37;20.60;68.80
31675;DHT22;18276;45.520;11.018;2023-05-24T00:27:05;20.60;68.80
31675;DHT22;18276;45.520;11.018;2023-05-24T00:29:32;20.60;68.80
31675;DHT22;18276;45.520;11.018;2023-05-24T00:31:59;20.60;68.90
31675;DHT22;18276;45.520;11.018;2023-05-24T00:34:26;20.60;69.00
31675;DHT22;18276;45.520;11.018;2023-05-24T00:36:53;20.60;69.00
31675;DHT22;18276;45.520;11.018;2023-05-24T00:39:20;20.60;69.00
31675;DHT22;18276;45.520;11.018;2023-05-24T00:41:47;20.50;69.00
31675;DHT22;18276;45.520;11.018;2023-05-24T00:44:14;20.60;69.20
31675;DHT22;18276;45.520;11.018;2023-05-24T00:46:41;20.50;69.20
31675;DHT22;18276;45.520;11.018;2023-05-24T00:49:09;20.50;69.20
31675;DHT22;18276;45.520;11.018;2023-05-24T00:51:36;20.50;69.40
31675;DHT22;18276;45.520;11.018;2023-05-24T00:54:04;20.50;70.20
31675;DHT22;18276;45.520;11.018;2023-05-24T00:56:32;20.40;69.40
31675;DHT22;18276;45.520;11.018;2023-05-24T00:59:00;20.40;69.50
31675;DHT22;18276;45.520;11.018;2023-05-24T01:01:27;20.40;69.70
31675;DHT22;18276;45.520;11.018;2023-05-24T01:03:57;20.40;69.70
31675;DHT22;18276;45.520;11.018;2023-05-24T01:06:27;20.30;69.80
31675;DHT22;18276;45.520;11.018;2023-05-24T01:12:17;20.30;70.00
31675;DHT22;18276;45.520;11.018;2023-05-24T01:18:04;20.30;70.00
31675;DHT22;18276;45.520;11.018;2023-05-24T01:20:32;20.20;70.00
31675;DHT22;18276;45.520;11.018;2023-05-24T01:26:26;20.20;70.00
31675;DHT22;18276;45.520;11.018;2023-05-24T01:28:58;20.30;70.10
31675;DHT22;18276;45.520;11.018;2023-05-24T01:31:26;20.20;70.10
31675;DHT22;18276;45.520;11.018;2023-05-24T01:33:53;20.20;70.20
31675;DHT22;18276;45.520;11.018;2023-05-24T01:36:20;20.20;70.20
31675;DHT22;18276;45.520;11.018;2023-05-24T01:38:49;20.20;70.40
31675;DHT22;18276;45.520;11.018;2023-05-24T01:41:50;20.10;70.50
31675;DHT22;18276;45.520;11.018;2023-05-24T01:44:39;20.10;70.50
31675;DHT22;18276;45.520;11.018;2023-05-24T01:49:48;20.00;70.70
31675;DHT22;18276;45.520;11.018;2023-05-24T01:52:18;20.00;70.80
31675;DHT22;18276;45.520;11.018;2023-05-24T01:54:51;20.00;70.80
31675;DHT22;18276;45.520;11.018;2023-05-24T01:57:19;20.00;70.80
31675;DHT22;18276;45.520;11.018;2023-05-24T01:59:49;20.00;70.90
31675;DHT22;18276;45.520;11.018;2023-05-24T02:02:17;19.90;70.80
31675;DHT22;18276;45.520;11.018;2023-05-24T02:04:45;19.90;70.90
31675;DHT22;18276;45.520;11.018;2023-05-24T02:07:12;19.90;71.10
31675;DHT22;18276;45.520;11.018;2023-05-24T02:09:39;19.90;71.10
31675;DHT22;18276;45.520;11.018;2023-05-24T02:12:07;19.80;71.10
31675;DHT22;18276;45.520;11.018;2023-05-24T02:14:34;19.80;71.00
31675;DHT22;18276;45.520;11.018;2023-05-24T02:17:04;19.90;71.10
31675;DHT22;18276;45.520;11.018;2023-05-24T02:19:31;19.80;71.10
31675;DHT22;18276;45.520;11.018;2023-05-24T02:22:00;19.80;71.20
31675;DHT22;18276;45.520;11.018;2023-05-24T02:24:29;19.80;71.30
31675;DHT22;18276;45.520;11.018;2023-05-24T02:26:56;19.80;71.30
31675;DHT22;18276;45.520;11.018;2023-05-24T02:29:23;19.70;71.30
31675;DHT22;18276;45.520;11.018;2023-05-24T02:31:50;19.80;71.50
31675;DHT22;18276;45.520;11.018;2023-05-24T02:34:22;19.70;71.50
31675;DHT22;18276;45.520;11.018;2023-05-24T02:36:50;19.70;71.60
31675;DHT22;18276;45.520;11.018;2023-05-24T02:39:17;19.70;71.60
31675;DHT22;18276;45.520;11.018;2023-05-24T02:41:44;19.70;71.60
31675;DHT22;18276;45.520;11.018;2023-05-24T02:44:11;19.60;71.70
31675;DHT22;18276;45.520;11.018;2023-05-24T02:46:38;19.60;71.70
31675;DHT22;18276;45.520;11.018;2023-05-24T02:49:05;19.60;71.80
31675;DHT22;18276;45.520;11.018;2023-05-24T02:51:32;19.60;71.80
31675;DHT22;18276;45.520;11.018;2023-05-24T02:53:59;19.60;71.80
31675;DHT22;18276;45.520;11.018;2023-05-24T02:56:27;19.60;71.80
31675;DHT22;18276;45.520;11.018;2023-05-24T02:58:55;19.60;71.90
31675;DHT22;18276;45.520;11.018;2023-05-24T03:01:23;19.60;71.90
31675;DHT22;18276;45.520;11.018;2023-05-24T03:03:52;19.60;72.00
31675;DHT22;18276;45.520;11.018;2023-05-24T03:06:19;19.50;72.00
31675;DHT22;18276;45.520;11.018;2023-05-24T03:08:46;19.50;72.00
31675;DHT22;18276;45.520;11.018;2023-05-24T03:11:15;19.50;72.10
31675;DHT22;18276;45.520;11.018;2023-05-24T03:13:42;19.50;72.10
31675;DHT22;18276;45.520;11.018;2023-05-24T03:16:10;19.50;72.20
31675;DHT22;18276;45.520;11.018;2023-05-24T03:18:37;19.40;72.10
31675;DHT22;18276;45.520;11.018;2023-05-24T03:21:04;19.40;72.20
31675;DHT22;18276;45.520;11.018;2023-05-24T03:23:32;19.40;72.30
31675;DHT22;18276;45.520;11.018;2023-05-24T03:25:59;19.40;72.30
31675;DHT22;18276;45.520;11.018;2023-05-24T03:28:27;19.40;73.00
31675;DHT22;18276;45.520;11.018;2023-05-24T03:30:56;19.40;72.30
31675;DHT22;18276;45.520;11.018;2023-05-24T03:33:23;19.40;72.30
31675;DHT22;18276;45.520;11.018;2023-05-24T03:35:51;19.40;72.40
31675;DHT22;18276;45.520;11.018;2023-05-24T03:38:18;19.40;72.50
31675;DHT22;18276;45.520;11.018;2023-05-24T03:40:46;19.40;72.50
31675;DHT22;18276;45.520;11.018;2023-05-24T03:43:17;19.40;72.50
31675;DHT22;18276;45.520;11.018;2023-05-24T03:45:48;19.40;72.40
31675;DHT22;18276;45.520;11.018;2023-05-24T03:48:15;19.40;72.30
31675;DHT22;18276;45.520;11.018;2023-05-24T03:50:43;19.40;72.30
31675;DHT22;18276;45.520;11.018;2023-05-24T03:53:10;19.40;72.30
31675;DHT22;18276;45.520;11.018;2023-05-24T03:55:37;19.40;72.30
31675;DHT22;18276;45.520;11.018;2023-05-24T03:58:05;19.40;72.30
31675;DHT22;18276;45.520;11.018;2023-05-24T04:00:32;19.50;72.50
31675;DHT22;18276;45.520;11.018;2023-05-24T04:03:00;19.50;72.60
31675;DHT22;18276;45.520;11.018;2023-05-24T04:05:28;19.50;72.70
31675;DHT22;18276;45.520;11.018;2023-05-24T04:07:55;19.50;72.90
31675;DHT22;18276;45.520;11.018;2023-05-24T04:10:22;19.40;72.90
31675;DHT22;18276;45.520;11.018;2023-05-24T04:12:49;19.40;73.20
31675;DHT22;18276;45.520;11.018;2023-05-24T04:15:16;19.40;73.30
31675;DHT22;18276;45.520;11.018;2023-05-24T04:17:44;19.40;73.50
31675;DHT22;18276;45.520;11.018;2023-05-24T04:20:12;19.40;73.60
31675;DHT22;18276;45.520;11.018;2023-05-24T04:22:39;19.40;73.50
31675;DHT22;18276;45.520;11.018;2023-05-24T04:25:07;19.50;73.40
31675;DHT22;18276;45.520;11.018;2023-05-24T04:27:36;19.50;73.40
31675;DHT22;18276;45.520;11.018;2023-05-24T04:30:03;19.60;73.30
31675;DHT22;18276;45.520;11.018;2023-05-24T04:32:31;19.60;73.20
31675;DHT22;18276;45.520;11.018;2023-05-24T04:34:58;19.60;72.90
31675;DHT22;18276;45.520;11.018;2023-05-24T04:37:26;19.70;72.60
31675;DHT22;18276;45.520;11.018;2023-05-24T04:39:53;19.90;72.50
31675;DHT22;18276;45.520;11.018;2023-05-24T04:42:20;19.90;72.30
31675;DHT22;18276;45.520;11.018;2023-05-24T04:44:47;20.00;72.20
31675;DHT22;18276;45.520;11.018;2023-05-24T04:47:14;20.10;72.20
31675;DHT22;18276;45.520;11.018;2023-05-24T04:49:42;20.20;72.00
31675;DHT22;18276;45.520;11.018;2023-05-24T04:52:09;20.30;71.60
31675;DHT22;18276;45.520;11.018;2023-05-24T04:54:36;20.40;71.30
31675;DHT22;18276;45.520;11.018;2023-05-24T04:57:03;20.50;70.80
31675;DHT22;18276;45.520;11.018;2023-05-24T04:59:30;20.60;70.60
31675;DHT22;18276;45.520;11.018;2023-05-24T05:01:57;20.80;70.60
31675;DHT22;18276;45.520;11.018;2023-05-24T05:04:24;20.80;70.50
31675;DHT22;18276;45.520;11.018;2023-05-24T05:06:51;20.90;70.20
31675;DHT22;18276;45.520;11.018;2023-05-24T05:09:18;21.10;70.00
31675;DHT22;18276;45.520;11.018;2023-05-24T05:11:46;21.20;69.60
31675;DHT22;18276;45.520;11.018;2023-05-24T05:14:14;21.30;69.20
31675;DHT22;18276;45.520;11.018;2023-05-24T05:16:41;21.70;68.40
31675;DHT22;18276;45.520;11.018;2023-05-24T05:19:08;22.30;67.10
31675;DHT22;18276;45.520;11.018;2023-05-24T05:21:35;22.90;65.70
31675;DHT22;18276;45.520;11.018;2023-05-24T05:24:02;23.50;64.10
31675;DHT22;18276;45.520;11.018;2023-05-24T05:26:30;24.00;62.30
31675;DHT22;18276;45.520;11.018;2023-05-24T05:28:57;24.40;61.20
31675;DHT22;18276;45.520;11.018;2023-05-24T05:31:24;24.90;60.00
31675;DHT22;18276;45.520;11.018;2023-05-24T05:33:51;25.30;59.00
31675;DHT22;18276;45.520;11.018;2023-05-24T05:36:18;25.80;58.20
31675;DHT22;18276;45.520;11.018;2023-05-24T05:38:45;26.30;57.30
31675;DHT22;18276;45.520;11.018;2023-05-24T05:41:12;26.80;56.20
31675;DHT22;18276;45.520;11.018;2023-05-24T05:43:39;27.10;54.50
31675;DHT22;18276;45.520;11.018;2023-05-24T05:46:06;27.10;53.70
31675;DHT22;18276;45.520;11.018;2023-05-24T05:48:33;26.90;53.20
31675;DHT22;18276;45.520;11.018;2023-05-24T05:51:00;26.80;53.50
31675;DHT22;18276;45.520;11.018;2023-05-24T05:53:27;26.80;53.90
31675;DHT22;18276;45.520;11.018;2023-05-24T05:55:55;26.70;53.90
31675;DHT22;18276;45.520;11.018;2023-05-24T05:58:22;26.80;53.90
31675;DHT22;18276;45.520;11.018;2023-05-24T06:00:49;26.90;53.80
31675;DHT22;18276;45.520;11.018;2023-05-24T06:03:16;27.20;53.30
31675;DHT22;18276;45.520;11.018;2023-05-24T06:05:44;27.50;52.70
31675;DHT22;18276;45.520;11.018;2023-05-24T06:08:11;27.80;52.30
31675;DHT22;18276;45.520;11.018;2023-05-24T06:10:38;28.00;51.90
31675;DHT22;18276;45.520;11.018;2023-05-24T06:13:04;28.20;51.30
31675;DHT22;18276;45.520;11.018;2023-05-24T06:15:31;28.40;51.10
31675;DHT22;18276;45.520;11.018;2023-05-24T06:17:59;28.70;50.70
31675;DHT22;18276;45.520;11.018;2023-05-24T06:20:26;29.20;50.10
31675;DHT22;18276;45.520;11.018;2023-05-24T06:22:53;29.60;49.30
31675;DHT22;18276;45.520;11.018;2023-05-24T06:25:20;30.00;48.30
31675;DHT22;18276;45.520;11.018;2023-05-24T06:27:49;30.50;47.80
31675;DHT22;18276;45.520;11.018;2023-05-24T06:30:17;30.90;47.00
31675;DHT22;18276;45.520;11.018;2023-05-24T06:32:44;31.20;46.20
31675;DHT22;18276;45.520;11.018;2023-05-24T06:35:11;31.50;45.50
31675;DHT22;18276;45.520;11.018;2023-05-24T06:37:38;31.60;44.90
31675;DHT22;18276;45.520;11.018;2023-05-24T06:40:05;31.90;44.80
31675;DHT22;18276;45.520;11.018;2023-05-24T06:42:34;32.10;44.30
31675;DHT22;18276;45.520;11.018;2023-05-24T06:45:01;32.40;43.90
31675;DHT22;18276;45.520;11.018;2023-05-24T06:47:28;32.80;43.30
31675;DHT22;18276;45.520;11.018;2023-05-24T06:49:55;33.10;42.60
31675;DHT22;18276;45.520;11.018;2023-05-24T06:52:22;33.40;42.20
31675;DHT22;18276;45.520;11.018;2023-05-24T06:54:49;33.60;41.70
31675;DHT22;18276;45.520;11.018;2023-05-24T06:57:17;33.70;41.10
31675;DHT22;18276;45.520;11.018;2023-05-24T06:59:44;33.80;40.50
31675;DHT22;18276;45.520;11.018;2023-05-24T07:02:11;33.80;40.30
31675;DHT22;18276;45.520;11.018;2023-05-24T07:04:38;33.70;40.20
31675;DHT22;18276;45.520;11.018;2023-05-24T07:07:07;33.50;40.50
31675;DHT22;18276;45.520;11.018;2023-05-24T07:09:34;33.50;40.60
31675;DHT22;18276;45.520;11.018;2023-05-24T07:12:01;33.60;40.50
31675;DHT22;18276;45.520;11.018;2023-05-24T07:14:28;33.80;40.20
31675;DHT22;18276;45.520;11.018;2023-05-24T07:16:55;33.80;40.20
31675;DHT22;18276;45.520;11.018;2023-05-24T07:19:25;34.00;39.60
31675;DHT22;18276;45.520;11.018;2023-05-24T07:21:55;33.90;39.60
31675;DHT22;18276;45.520;11.018;2023-05-24T07:24:22;34.10;39.60
31675;DHT22;18276;45.520;11.018;2023-05-24T07:26:50;34.20;39.00
31675;DHT22;18276;45.520;11.018;2023-05-24T07:29:18;34.20;39.10
31675;DHT22;18276;45.520;11.018;2023-05-24T07:31:47;34.10;39.30
31675;DHT22;18276;45.520;11.018;2023-05-24T07:34:14;34.10;39.80
31675;DHT22;18276;45.520;11.018;2023-05-24T07:36:41;34.10;39.90
31675;DHT22;18276;45.520;11.018;2023-05-24T07:39:08;34.30;39.20
31675;DHT22;18276;45.520;11.018;2023-05-24T07:41:35;34.60;39.00
31675;DHT22;18276;45.520;11.018;2023-05-24T07:44:02;34.40;38.80
31675;DHT22;18276;45.520;11.018;2023-05-24T07:46:29;34.30;39.10
31675;DHT22;18276;45.520;11.018;2023-05-24T07:48:56;34.30;39.30
31675;DHT22;18276;45.520;11.018;2023-05-24T07:51:23;34.30;39.70
31675;DHT22;18276;45.520;11.018;2023-05-24T07:53:51;34.30;39.90
31675;DHT22;18276;45.520;11.018;2023-05-24T07:56:18;34.40;39.80
31675;DHT22;18276;45.520;11.018;2023-05-24T07:58:45;34.60;39.70
31675;DHT22;18276;45.520;11.018;2023-05-24T08:01:12;34.70;39.30
31675;DHT22;18276;45.520;11.018;2023-05-24T08:03:39;34.70;39.40
31675;DHT22;18276;45.520;11.018;2023-05-24T08:06:06;34.80;39.60
31675;DHT22;18276;45.520;11.018;2023-05-24T08:08:34;35.00;39.20
31675;DHT22;18276;45.520;11.018;2023-05-24T08:11:01;35.00;38.80
31675;DHT22;18276;45.520;11.018;2023-05-24T08:13:28;34.70;39.40
31675;DHT22;18276;45.520;11.018;2023-05-24T08:15:55;34.60;39.40
31675;DHT22;18276;45.520;11.018;2023-05-24T08:18:24;34.60;39.70
31675;DHT22;18276;45.520;11.018;2023-05-24T08:20:51;34.80;39.70
31675;DHT22;18276;45.520;11.018;2023-05-24T08:23:18;34.90;39.40
31675;DHT22;18276;45.520;11.018;2023-05-24T08:25:44;34.60;39.70
31675;DHT22;18276;45.520;11.018;2023-05-24T08:28:11;34.60;40.10
31675;DHT22;18276;45.520;11.018;2023-05-24T08:30:45;34.60;40.10
31675;DHT22;18276;45.520;11.018;2023-05-24T08:33:11;34.80;39.80
31675;DHT22;18276;45.520;11.018;2023-05-24T08:35:38;34.90;39.60
31675;DHT22;18276;45.520;11.018;2023-05-24T08:38:06;35.20;39.60
31675;DHT22;18276;45.520;11.018;2023-05-24T08:40:33;35.60;38.70
31675;DHT22;18276;45.520;11.018;2023-05-24T08:43:00;35.80;38.30
31675;DHT22;18276;45.520;11.018;2023-05-24T08:45:31;35.70;38.00
31675;DHT22;18276;45.520;11.018;2023-05-24T08:47:58;35.70;38.30
31675;DHT22;18276;45.520;11.018;2023-05-24T08:50:26;35.90;37.80
31675;DHT22;18276;45.520;11.018;2023-05-24T08:52:53;36.00;37.20
31675;DHT22;18276;45.520;11.018;2023-05-24T08:55:20;35.90;37.40
31675;DHT22;18276;45.520;11.018;2023-05-24T08:57:47;35.90;37.30
31675;DHT22;18276;45.520;11.018;2023-05-24T09:00:14;36.00;37.20
31675;DHT22;18276;45.520;11.018;2023-05-24T09:02:42;35.90;37.10
31675;DHT22;18276;45.520;11.018;2023-05-24T09:05:11;36.00;37.10
31675;DHT22;18276;45.520;11.018;2023-05-24T09:07:40;35.80;36.70
31675;DHT22;18276;45.520;11.018;2023-05-24T09:10:08;35.90;37.40
31675;DHT22;18276;45.520;11.018;2023-05-24T09:12:36;36.00;37.20
31675;DHT22;18276;45.520;11.018;2023-05-24T09:15:05;36.20;36.90
31675;DHT22;18276;45.520;11.018;2023-05-24T09:17:36;36.50;35.80
31675;DHT22;18276;45.520;11.018;2023-05-24T09:20:04;36.50;35.50
31675;DHT22;18276;45.520;11.018;2023-05-24T09:22:33;36.20;35.30
31675;DHT22;18276;45.520;11.018;2023-05-24T09:25:06;36.00;35.80
31675;DHT22;18276;45.520;11.018;2023-05-24T09:27:35;35.90;35.60
31675;DHT22;18276;45.520;11.018;2023-05-24T09:30:02;35.90;35.60
31675;DHT22;18276;45.520;11.018;2023-05-24T09:32:31;36.20;35.50
31675;DHT22;18276;45.520;11.018;2023-05-24T09:34:58;36.40;35.00
31675;DHT22;18276;45.520;11.018;2023-05-24T09:37:26;36.60;34.70
31675;DHT22;18276;45.520;11.018;2023-05-24T09:39:58;36.60;34.80
31675;DHT22;18276;45.520;11.018;2023-05-24T09:42:26;36.90;34.70
31675;DHT22;18276;45.520;11.018;2023-05-24T09:45:12;36.80;34.70
31675;DHT22;18276;45.520;11.018;2023-05-24T09:47:39;36.20;34.60
31675;DHT22;18276;45.520;11.018;2023-05-24T09:50:13;35.60;35.60
31675;DHT22;18276;45.520;11.018;2023-05-24T09:52:40;35.10;36.50
31675;DHT22;18276;45.520;11.018;2023-05-24T09:55:14;34.80;37.00
31675;DHT22;18276;45.520;11.018;2023-05-24T09:57:44;34.80;37.10
31675;DHT22;18276;45.520;11.018;2023-05-24T10:00:19;34.80;37.10
31675;DHT22;18276;45.520;11.018;2023-05-24T10:03:00;35.00;36.80
31675;DHT22;18276;45.520;11.018;2023-05-24T10:05:30;35.10;36.80
31675;DHT22;18276;45.520;11.018;2023-05-24T10:07:58;35.10;36.70
31675;DHT22;18276;45.520;11.018;2023-05-24T10:10:26;35.20;37.00
31675;DHT22;18276;45.520;11.018;2023-05-24T10:12:57;35.70;36.60
31675;DHT22;18276;45.520;11.018;2023-05-24T10:15:24;35.90;35.80
31675;DHT22;18276;45.520;11.018;2023-05-24T10:17:55;35.30;36.10
31675;DHT22;18276;45.520;11.018;2023-05-24T10:20:22;34.30;37.30
31675;DHT22;18276;45.520;11.018;2023-05-24T10:22:50;33.60;38.90
31675;DHT22;18276;45.520;11.018;2023-05-24T10:25:21;33.50;39.60
31675;DHT22;18276;45.520;11.018;2023-05-24T10:28:00;33.80;39.40
31675;DHT22;18276;45.520;11.018;2023-05-24T10:33:06;34.30;38.80
31675;DHT22;18276;45.520;11.018;2023-05-24T10:35:37;34.70;38.70
31675;DHT22;18276;45.520;11.018;2023-05-24T10:38:11;34.70;37.80
31675;DHT22;18276;45.520;11.018;2023-05-24T10:40:40;34.70;37.70
31675;DHT22;18276;45.520;11.018;2023-05-24T10:43:07;34.50;38.30
31675;DHT22;18276;45.520;11.018;2023-05-24T10:45:49;34.20;38.30
31675;DHT22;18276;45.520;11.018;2023-05-24T10:50:48;33.30;39.00
31675;DHT22;18276;45.520;11.018;2023-05-24T10:53:15;32.70;39.80
31675;DHT22;18276;45.520;11.018;2023-05-24T10:55:55;32.20;41.10
31675;DHT22;18276;45.520;11.018;2023-05-24T10:58:42;31.80;41.90
31675;DHT22;18276;45.520;11.018;2023-05-24T11:01:29;31.50;42.50
31675;DHT22;18276;45.520;11.018;2023-05-24T11:04:07;31.20;43.00
31675;DHT22;18276;45.520;11.018;2023-05-24T11:06:44;31.20;43.50
31675;DHT22;18276;45.520;11.018;2023-05-24T11:09:18;31.60;43.10
31675;DHT22;18276;45.520;11.018;2023-05-24T11:12:06;32.30;42.20
31675;DHT22;18276;45.520;11.018;2023-05-24T11:14:36;32.50;41.80
31675;DHT22;18276;45.520;11.018;2023-05-24T11:17:11;32.20;41.70
31675;DHT22;18276;45.520;11.018;2023-05-24T11:20:00;31.70;42.30
31675;DHT22;18276;45.520;11.018;2023-05-24T11:22:29;31.70;42.90
31675;DHT22;18276;45.520;11.018;2023-05-24T11:24:57;32.30;42.20
31675;DHT22;18276;45.520;11.018;2023-05-24T11:27:29;33.00;41.00
31675;DHT22;18276;45.520;11.018;2023-05-24T11:29:59;33.70;40.20
31675;DHT22;18276;45.520;11.018;2023-05-24T11:32:26;34.40;39.10
31675;DHT22;18276;45.520;11.018;2023-05-24T11:34:59;34.20;38.10
31675;DHT22;18276;45.520;11.018;2023-05-24T11:37:30;33.20;39.40
31675;DHT22;18276;45.520;11.018;2023-05-24T11:40:12;33.10;40.10
31675;DHT22;18276;45.520;11.018;2023-05-24T11:42:41;32.80;40.40
31675;DHT22;18276;45.520;11.018;2023-05-24T11:45:12;32.40;41.10
31675;DHT22;18276;45.520;11.018;2023-05-24T11:47:42;32.40;41.90
31675;DHT22;18276;45.520;11.018;2023-05-24T11:50:09;32.60;40.80
31675;DHT22;18276;45.520;11.018;2023-05-24T11:52:39;32.40;40.90
31675;DHT22;18276;45.520;11.018;2023-05-24T11:55:06;32.20;41.40
31675;DHT22;18276;45.520;11.018;2023-05-24T11:57:37;31.90;41.70
31675;DHT22;18276;45.520;11.018;2023-05-24T12:00:09;31.90;42.20
31675;DHT22;18276;45.520;11.018;2023-05-24T12:02:46;31.80;41.90
31675;DHT22;18276;45.520;11.018;2023-05-24T12:05:17;31.70;42.70
31675;DHT22;18276;45.520;11.018;2023-05-24T12:07:46;31.60;43.30
31675;DHT22;18276;45.520;11.018;2023-05-24T12:10:17;31.40;43.70
31675;DHT22;18276;45.520;11.018;2023-05-24T12:12:48;31.30;43.70
31675;DHT22;18276;45.520;11.018;2023-05-24T12:15:19;31.20;43.70
31675;DHT22;18276;45.520;11.018;2023-05-24T12:17:48;31.10;43.90
31675;DHT22;18276;45.520;11.018;2023-05-24T12:20:16;31.30;43.90
31675;DHT22;18276;45.520;11.018;2023-05-24T12:22:59;30.90;43.40
31675;DHT22;18276;45.520;11.018;2023-05-24T12:25:35;30.30;44.10
31675;DHT22;18276;45.520;11.018;2023-05-24T12:28:03;29.90;45.10
31675;DHT22;18276;45.520;11.018;2023-05-24T12:30:31;29.90;45.30
31675;DHT22;18276;45.520;11.018;2023-05-24T12:32:58;30.20;45.40
31675;DHT22;18276;45.520;11.018;2023-05-24T12:35:25;30.60;44.70
31675;DHT22;18276;45.520;11.018;2023-05-24T12:37:56;30.50;44.90
31675;DHT22;18276;45.520;11.018;2023-05-24T12:40:24;30.40;44.70
31675;DHT22;18276;45.520;11.018;2023-05-24T12:42:54;30.20;44.30
31675;DHT22;18276;45.520;11.018;2023-05-24T12:45:23;30.30;44.60
31675;DHT22;18276;45.520;11.018;2023-05-24T12:47:51;30.10;44.20
31675;DHT22;18276;45.520;11.018;2023-05-24T12:50:19;30.20;44.50
31675;DHT22;18276;45.520;11.018;2023-05-24T12:52:47;30.10;44.60
31675;DHT22;18276;45.520;11.018;2023-05-24T12:55:14;29.80;45.30
31675;DHT22;18276;45.520;11.018;2023-05-24T12:57:41;29.60;45.90
31675;DHT22;18276;45.520;11.018;2023-05-24T13:00:08;29.60;46.00
31675;DHT22;18276;45.520;11.018;2023-05-24T13:02:37;29.50;46.90
31675;DHT22;18276;45.520;11.018;2023-05-24T13:05:06;29.40;47.60
31675;DHT22;18276;45.520;11.018;2023-05-24T13:07:33;29.30;47.90
31675;DHT22;18276;45.520;11.018;2023-05-24T13:10:00;29.10;48.60
31675;DHT22;18276;45.520;11.018;2023-05-24T13:12:27;29.00;49.10
31675;DHT22;18276;45.520;11.018;2023-05-24T13:14:54;28.80;49.70
31675;DHT22;18276;45.520;11.018;2023-05-24T13:17:21;28.70;50.00
31675;DHT22;18276;45.520;11.018;2023-05-24T13:19:48;28.80;49.40
31675;DHT22;18276;45.520;11.018;2023-05-24T13:22:15;28.70;49.60
31675;DHT22;18276;45.520;11.018;2023-05-24T13:24:42;28.70;49.50
31675;DHT22;18276;45.520;11.018;2023-05-24T13:27:09;28.80;49.60
31675;DHT22;18276;45.520;11.018;2023-05-24T13:29:36;28.90;49.70
31675;DHT22;18276;45.520;11.018;2023-05-24T13:32:18;29.20;49.40
31675;DHT22;18276;45.520;11.018;2023-05-24T13:34:45;29.30;49.30
31675;DHT22;18276;45.520;11.018;2023-05-24T13:37:12;29.20;49.10
31675;DHT22;18276;45.520;11.018;2023-05-24T13:39:39;29.00;49.80
31675;DHT22;18276;45.520;11.018;2023-05-24T13:42:06;28.80;50.10
31675;DHT22;18276;45.520;11.018;2023-05-24T13:44:33;28.60;50.30
31675;DHT22;18276;45.520;11.018;2023-05-24T13:47:00;28.40;50.40
31675;DHT22;18276;45.520;11.018;2023-05-24T13:49:28;28.40;50.90
31675;DHT22;18276;45.520;11.018;2023-05-24T13:51:54;28.40;50.60
31675;DHT22;18276;45.520;11.018;2023-05-24T13:54:24;28.40;49.90
31675;DHT22;18276;45.520;11.018;2023-05-24T13:56:52;28.20;50.00
31675;DHT22;18276;45.520;11.018;2023-05-24T13:59:22;28.20;50.20
31675;DHT22;18276;45.520;11.018;2023-05-24T14:01:50;28.30;50.20
31675;DHT22;18276;45.520;11.018;2023-05-24T14:04:17;28.20;50.40
31675;DHT22;18276;45.520;11.018;2023-05-24T14:06:44;28.20;50.20
31675;DHT22;18276;45.520;11.018;2023-05-24T14:09:11;28.10;50.10
31675;DHT22;18276;45.520;11.018;2023-05-24T14:11:37;27.90;50.50
31675;DHT22;18276;45.520;11.018;2023-05-24T14:14:05;27.90;51.00
31675;DHT22;18276;45.520;11.018;2023-05-24T14:16:34;28.00;51.40
31675;DHT22;18276;45.520;11.018;2023-05-24T14:19:02;28.10;51.00
31675;DHT22;18276;45.520;11.018;2023-05-24T14:21:30;28.10;50.60
31675;DHT22;18276;45.520;11.018;2023-05-24T14:23:58;28.00;51.00
31675;DHT22;18276;45.520;11.018;2023-05-24T14:26:25;27.90;50.80
31675;DHT22;18276;45.520;11.018;2023-05-24T14:28:53;27.70;51.10
31675;DHT22;18276;45.520;11.018;2023-05-24T14:31:22;27.60;51.20
31675;DHT22;18276;45.520;11.018;2023-05-24T14:33:49;27.60;51.60
31675;DHT22;18276;45.520;11.018;2023-05-24T14:36:16;27.70;51.50
31675;DHT22;18276;45.520;11.018;2023-05-24T14:38:43;27.70;51.50
31675;DHT22;18276;45.520;11.018;2023-05-24T14:41:10;27.50;51.50
31675;DHT22;18276;45.520;11.018;2023-05-24T14:43:37;27.40;52.10
31675;DHT22;18276;45.520;11.018;2023-05-24T14:46:06;27.30;51.90
31675;DHT22;18276;45.520;11.018;2023-05-24T14:48:33;27.20;52.10
31675;DHT22;18276;45.520;11.018;2023-05-24T14:51:01;27.40;51.90
31675;DHT22;18276;45.520;11.018;2023-05-24T14:53:28;27.60;51.50
31675;DHT22;18276;45.520;11.018;2023-05-24T14:55:55;27.50;51.50
31675;DHT22;18276;45.520;11.018;2023-05-24T14:58:22;27.50;51.90
31675;DHT22;18276;45.520;11.018;2023-05-24T15:00:49;27.50;51.90
31675;DHT22;18276;45.520;11.018;2023-05-24T15:03:16;27.40;52.30
31675;DHT22;18276;45.520;11.018;2023-05-24T15:05:44;27.30;52.60
31675;DHT22;18276;45.520;11.018;2023-05-24T15:08:11;27.30;52.70
31675;DHT22;18276;45.520;11.018;2023-05-24T15:10:39;27.40;52.90
31675;DHT22;18276;45.520;11.018;2023-05-24T15:13:06;27.40;52.30
31675;DHT22;18276;45.520;11.018;2023-05-24T15:15:33;27.60;52.40
31675;DHT22;18276;45.520;11.018;2023-05-24T15:18:00;27.70;52.10
31675;DHT22;18276;45.520;11.018;2023-05-24T15:20:27;27.70;51.90
31675;DHT22;18276;45.520;11.018;2023-05-24T15:22:54;27.70;52.00
31675;DHT22;18276;45.520;11.018;2023-05-24T15:25:21;27.50;51.90
31675;DHT22;18276;45.520;11.018;2023-05-24T15:27:48;27.50;51.90
31675;DHT22;18276;45.520;11.018;2023-05-24T15:30:17;27.30;52.10
31675;DHT22;18276;45.520;11.018;2023-05-24T15:32:44;27.10;52.50
31675;DHT22;18276;45.520;11.018;2023-05-24T15:35:12;27.00;53.00
31675;DHT22;18276;45.520;11.018;2023-05-24T15:37:41;26.90;53.20
31675;DHT22;18276;45.520;11.018;2023-05-24T15:40:08;26.60;53.70